createdAt,value
2019-01-21T00:01:46.797Z,18.27
2019-01-21T00:04:17.094Z,19.33
2019-01-21T00:06:47.298Z,19.43
2019-01-21T00:09:17.758Z,19.30
2019-01-21T00:11:48.046Z,19.57
2019-01-21T00:14:18.369Z,18.53
2019-01-21T00:16:48.559Z,19.50
2019-01-21T00:19:19.017Z,17.70
2019-01-21T00:21:49.211Z,18.77
2019-01-21T00:24:19.445Z,19.43
2019-01-21T00:26:49.652Z,19.60
2019-01-21T00:29:19.895Z,19.43
2019-01-21T00:31:50.096Z,18.43
2019-01-21T00:34:20.574Z,20.00
2019-01-21T00:36:51.021Z,18.93
2019-01-21T00:39:21.221Z,19.03
2019-01-21T00:41:51.687Z,18.83
2019-01-21T00:44:22.134Z,18.60
2019-01-21T00:46:52.598Z,18.80
2019-01-21T00:49:22.786Z,18.70
2019-01-21T00:51:53.019Z,19.63
2019-01-21T00:54:23.223Z,18.60
2019-01-21T00:56:53.451Z,18.53
2019-01-21T00:59:23.687Z,17.87
2019-01-21T01:01:53.915Z,19.03
2019-01-21T01:04:24.367Z,19.33
2019-01-21T01:06:54.561Z,18.30
2019-01-21T01:09:24.793Z,17.87
2019-01-21T01:11:54.987Z,18.03
2019-01-21T01:14:25.217Z,18.63
2019-01-21T01:16:55.433Z,19.53
2019-01-21T01:19:25.639Z,18.67
2019-01-21T01:21:55.872Z,18.57
2019-01-21T01:24:26.092Z,17.77
2019-01-21T01:26:56.552Z,17.83
2019-01-21T01:29:26.806Z,18.97
2019-01-21T01:31:57.247Z,20.20
2019-01-21T01:34:27.474Z,18.80
2019-01-21T01:36:57.691Z,18.37
2019-01-21T01:39:27.914Z,18.57
2019-01-21T01:41:58.118Z,18.60
2019-01-21T01:44:28.621Z,18.10
2019-01-21T01:46:58.830Z,17.27
2019-01-21T01:49:29.054Z,18.07
2019-01-21T01:51:59.273Z,16.60
2019-01-21T01:54:29.487Z,17.53
2019-01-21T01:56:59.894Z,17.53
2019-01-21T01:59:30.118Z,17.97
2019-01-21T02:02:00.563Z,17.53
2019-01-21T02:04:30.789Z,18.47
2019-01-21T02:07:00.998Z,18.43
2019-01-21T02:09:31.217Z,17.63
2019-01-21T02:12:01.438Z,18.63
2019-01-21T02:14:31.666Z,18.33
2019-01-21T02:17:01.899Z,17.87
2019-01-21T02:19:32.479Z,18.93
2019-01-21T02:22:03.227Z,18.30
2019-01-21T02:24:34.866Z,17.23
2019-01-21T02:27:07.207Z,17.43
2019-01-21T02:29:59.655Z,18.43
2019-01-21T02:32:47.758Z,16.70
2019-01-21T02:35:23.903Z,17.17
2019-01-21T02:38:02.746Z,17.73
2019-01-21T02:40:56.468Z,17.33
2019-01-21T02:43:32.313Z,17.17
2019-01-21T02:46:34.040Z,16.73
2019-01-21T02:49:10.426Z,16.10
2019-01-21T02:51:49.479Z,17.57
2019-01-21T02:54:25.309Z,15.87
2019-01-21T02:57:04.561Z,16.77
2019-01-21T02:59:43.330Z,15.83
2019-01-21T03:02:25.325Z,16.47
2019-01-21T03:05:01.852Z,17.50
2019-01-21T03:07:47.211Z,16.27
2019-01-21T03:10:32.593Z,15.97
2019-01-21T03:13:26.507Z,16.17
2019-01-21T03:16:14.769Z,16.10
2019-01-21T03:18:48.050Z,16.93
2019-01-21T03:21:33.022Z,16.53
2019-01-21T03:24:31.838Z,16.63
2019-01-21T03:27:32.458Z,16.70
2019-01-21T03:30:29.692Z,17.67
2019-01-21T03:33:31.733Z,16.50
2019-01-21T03:36:09.028Z,16.27
2019-01-21T03:39:16.802Z,15.93
2019-01-21T03:42:00.308Z,16.80
2019-01-21T03:44:42.918Z,16.40
2019-01-21T03:47:19.271Z,16.40
2019-01-21T03:50:14.994Z,15.83
2019-01-21T03:53:07.482Z,15.63
2019-01-21T03:55:37.761Z,17.33
2019-01-21T03:58:20.877Z,16.97
2019-01-21T04:00:57.095Z,16.53
2019-01-21T04:03:30.390Z,16.77
2019-01-21T04:06:06.325Z,17.63
2019-01-21T04:08:51.468Z,15.67
2019-01-21T04:11:36.467Z,16.37
2019-01-21T04:14:24.671Z,15.67
2019-01-21T04:17:14.066Z,16.53
2019-01-21T04:19:47.559Z,15.47
2019-01-21T04:22:23.597Z,16.23
2019-01-21T04:24:57.122Z,16.20
2019-01-21T04:27:39.275Z,16.70
2019-01-21T04:30:12.585Z,17.13
2019-01-21T04:32:48.560Z,16.77
2019-01-21T04:35:38.225Z,16.63
2019-01-21T04:38:26.250Z,16.27
2019-01-21T04:41:02.105Z,15.83
2019-01-21T04:43:47.021Z,17.33
2019-01-21T04:46:29.107Z,16.67
2019-01-21T04:49:02.418Z,17.03
2019-01-21T04:52:02.448Z,16.43
2019-01-21T04:54:38.848Z,16.70
2019-01-21T04:57:30.231Z,15.43
2019-01-21T05:00:21.054Z,15.70
2019-01-21T05:03:15.650Z,15.23
2019-01-21T05:06:06.867Z,15.97
2019-01-21T05:09:05.445Z,16.60
2019-01-21T05:11:59.609Z,16.27
2019-01-21T05:14:32.919Z,15.50
2019-01-21T05:17:15.282Z,15.33
2019-01-21T05:20:09.649Z,17.33
2019-01-21T05:22:45.491Z,14.90
2019-01-21T05:25:27.623Z,16.37
2019-01-21T05:28:21.521Z,15.87
2019-01-21T05:31:03.823Z,17.10
2019-01-21T05:33:39.792Z,16.57
2019-01-21T05:36:31.064Z,16.70
2019-01-21T05:39:09.454Z,16.63
2019-01-21T05:42:05.284Z,16.00
2019-01-21T05:44:54.901Z,15.80
2019-01-21T05:47:36.853Z,16.27
2019-01-21T05:50:19.028Z,17.43
2019-01-21T05:53:03.432Z,16.93
2019-01-21T05:55:36.725Z,15.37
2019-01-21T05:58:43.330Z,16.70
2019-01-21T06:01:31.715Z,16.93
2019-01-21T06:04:13.919Z,16.50
2019-01-21T06:07:04.839Z,16.73
2019-01-21T06:09:43.707Z,16.63
2019-01-21T06:12:22.750Z,15.97
2019-01-21T06:15:07.893Z,17.03
2019-01-21T06:17:53.003Z,16.57
2019-01-21T06:20:41.308Z,15.23
2019-01-21T06:23:14.606Z,16.20
2019-01-21T06:26:22.312Z,15.40
2019-01-21T06:29:04.180Z,15.37
2019-01-21T06:31:49.104Z,17.60
2019-01-21T06:34:28.351Z,15.97
2019-01-21T06:37:19.066Z,15.47
2019-01-21T06:40:01.142Z,16.83
2019-01-21T06:42:46.526Z,16.67
2019-01-21T06:45:25.793Z,17.10
2019-01-21T06:48:02.030Z,17.77
2019-01-21T06:51:03.712Z,17.53
2019-01-21T06:53:40.098Z,17.37
2019-01-21T06:56:22.227Z,16.30
2019-01-21T06:59:21.114Z,17.53
2019-01-21T07:02:15.156Z,16.30
2019-01-21T07:05:00.319Z,17.10
2019-01-21T07:07:33.639Z,16.00
2019-01-21T07:10:12.411Z,17.63
2019-01-21T07:17:03.080Z,16.13
2019-01-21T07:19:54.099Z,16.30
2019-01-21T07:22:27.641Z,16.27
2019-01-21T07:25:18.711Z,17.87
2019-01-21T07:27:51.989Z,17.37
2019-01-21T07:30:30.782Z,17.20
2019-01-21T07:33:19.211Z,17.17
2019-01-21T07:36:23.944Z,17.90
2019-01-21T07:39:13.559Z,16.53
2019-01-21T07:41:55.753Z,17.03
2019-01-21T07:44:58.929Z,16.80
2019-01-21T07:47:34.978Z,16.90
2019-01-21T07:50:20.480Z,15.10
2019-01-21T07:53:15.938Z,16.87
2019-01-21T07:56:14.768Z,16.30
2019-01-21T07:59:11.750Z,16.70
2019-01-21T08:01:56.714Z,15.77
2019-01-21T08:04:32.631Z,16.27
2019-01-21T08:07:11.598Z,16.20
2019-01-21T08:09:56.763Z,15.80
2019-01-21T08:12:32.822Z,15.17
2019-01-21T08:15:11.794Z,16.70
2019-01-21T08:17:45.105Z,17.43
2019-01-21T08:20:24.170Z,17.80
2019-01-21T08:23:09.176Z,17.57
2019-01-21T08:26:03.597Z,16.73
2019-01-21T08:28:53.235Z,16.53
2019-01-21T08:31:32.524Z,16.47
2019-01-21T08:34:25.094Z,17.60
2019-01-21T08:37:01.177Z,16.87
2019-01-21T08:39:37.508Z,18.13
2019-01-21T08:42:22.681Z,18.10
2019-01-21T08:45:01.700Z,18.50
2019-01-21T08:47:58.766Z,17.50
2019-01-21T08:50:53.130Z,17.77
2019-01-21T08:53:26.474Z,18.37
2019-01-21T08:56:15.787Z,18.13
2019-01-21T08:59:05.554Z,17.80
2019-01-21T09:01:38.849Z,18.97
2019-01-21T09:04:36.419Z,18.03
2019-01-21T09:07:31.294Z,20.23
2019-01-21T09:10:07.178Z,18.83
2019-01-21T09:12:49.025Z,18.17
2019-01-21T09:15:40.210Z,18.67
2019-01-21T09:18:22.075Z,19.13
2019-01-21T09:20:57.930Z,19.03
2019-01-21T09:23:45.898Z,19.87
2019-01-21T09:26:27.813Z,19.77
2019-01-21T09:29:17.402Z,20.87
2019-01-21T09:32:05.826Z,23.03
2019-01-21T09:34:44.847Z,20.33
2019-01-21T09:37:26.910Z,21.20
2019-01-21T09:40:26.939Z,21.83
2019-01-21T09:43:11.705Z,21.63
2019-01-21T09:45:59.742Z,22.23
2019-01-21T09:48:28.937Z,21.73
2019-01-21T09:51:02.260Z,21.87
2019-01-21T09:53:33.425Z,21.30
2019-01-21T09:56:04.218Z,22.77
2019-01-21T09:58:34.687Z,22.87
2019-01-21T10:01:05.358Z,23.43
2019-01-21T10:03:35.906Z,22.03
2019-01-21T10:06:07.162Z,22.57
2019-01-21T10:08:49.483Z,22.80
2019-01-21T10:11:28.715Z,22.83
2019-01-21T10:14:13.844Z,23.67
2019-01-21T10:17:12.330Z,21.50
2019-01-21T10:20:11.386Z,22.17
2019-01-21T10:22:47.851Z,23.23
2019-01-21T10:25:21.152Z,23.50
2019-01-21T10:28:13.577Z,22.57
2019-01-21T10:31:04.570Z,20.03
2019-01-21T10:33:43.577Z,21.20
2019-01-21T10:36:46.598Z,22.20
2019-01-21T10:39:22.881Z,21.23
2019-01-21T10:42:01.995Z,21.43
2019-01-21T10:44:41.238Z,22.10
2019-01-21T10:47:26.277Z,22.73
2019-01-21T10:50:11.491Z,21.07
2019-01-21T10:53:02.414Z,23.07
2019-01-21T10:55:35.760Z,22.93
2019-01-21T10:58:09.111Z,22.50
2019-01-21T11:01:15.181Z,23.73
2019-01-21T11:03:51.330Z,21.43
2019-01-21T11:06:48.650Z,22.07
2019-01-21T11:09:26.807Z,21.03
2019-01-21T11:12:14.650Z,21.83
2019-01-21T11:14:59.498Z,20.03
2019-01-21T11:17:47.543Z,22.57
2019-01-21T11:20:57.956Z,22.13
2019-01-21T11:23:54.906Z,21.27
2019-01-21T11:26:49.982Z,21.27
2019-01-21T11:29:58.861Z,20.43
2019-01-21T11:32:55.778Z,21.87
2019-01-21T11:36:20.897Z,20.70
2019-01-21T11:39:20.462Z,22.33
2019-01-21T11:42:26.046Z,21.30
2019-01-21T11:45:08.553Z,20.40
2019-01-21T11:47:47.839Z,20.77
2019-01-21T11:50:42.629Z,20.70
2019-01-21T11:53:18.436Z,19.87
2019-01-21T11:55:53.214Z,21.97
2019-01-21T11:58:31.873Z,21.07
2019-01-21T12:01:16.780Z,21.47
2019-01-21T12:03:55.481Z,21.10
2019-01-21T12:06:28.436Z,21.20
2019-01-21T12:09:05.097Z,20.30
2019-01-21T12:11:38.758Z,20.20
2019-01-21T12:14:44.233Z,22.13
2019-01-21T12:17:39.785Z,21.47
2019-01-21T12:20:27.739Z,20.77
2019-01-21T12:23:06.827Z,20.40
2019-01-21T12:25:43.341Z,21.10
2019-01-21T12:28:45.346Z,20.23
2019-01-21T12:31:27.554Z,21.27
2019-01-21T12:34:09.585Z,20.13
2019-01-21T12:36:45.927Z,19.73
2019-01-21T12:39:25.667Z,19.30
2019-01-21T12:42:13.132Z,20.07
2019-01-21T12:44:50.876Z,20.53
2019-01-21T12:47:38.943Z,21.10
2019-01-21T12:50:34.504Z,19.97
2019-01-21T12:53:31.119Z,20.87
2019-01-21T12:56:15.864Z,20.43
2019-01-21T12:59:16.103Z,19.80
2019-01-21T13:01:52.814Z,20.27
2019-01-21T13:04:36.990Z,19.93
2019-01-21T13:07:19.205Z,19.30
2019-01-21T13:10:05.708Z,18.87
2019-01-21T13:12:59.786Z,20.00
2019-01-21T13:15:56.025Z,16.87
2019-01-21T13:18:45.257Z,17.20
2019-01-21T13:25:37.885Z,18.63
2019-01-21T13:28:40.740Z,18.40
2019-01-21T13:31:40.045Z,17.83
2019-01-21T13:34:35.196Z,19.47
2019-01-21T13:37:32.125Z,17.83
2019-01-21T13:40:26.485Z,17.33
2019-01-21T13:43:05.323Z,18.50
2019-01-21T13:46:01.878Z,17.30
2019-01-21T13:49:30.132Z,16.03
2019-01-21T13:51:57.002Z,16.23
2019-01-21T13:54:39.364Z,14.63
2019-01-21T13:57:46.876Z,15.03
2019-01-21T14:00:29.888Z,15.83
2019-01-21T14:28:11.700Z,16.27
2019-01-21T14:49:18.622Z,15.60
2019-01-21T16:52:44.919Z,21.00
2019-01-21T17:24:55.198Z,24.70
2019-01-21T18:36:33.759Z,19.10
2019-01-21T18:39:07.035Z,19.90
2019-01-21T18:41:37.264Z,19.17
2019-01-21T18:44:07.530Z,18.47
2019-01-21T18:46:37.770Z,20.27
2019-01-21T18:49:09.557Z,19.90
2019-01-21T18:51:39.800Z,21.23
2019-01-21T18:54:10.030Z,20.07
2019-01-21T18:56:40.378Z,21.33
2019-01-21T18:59:10.581Z,19.90
2019-01-21T19:01:40.823Z,22.87
2019-01-21T19:04:11.045Z,21.63
2019-01-21T19:06:41.247Z,22.30
2019-01-21T19:09:11.546Z,20.00
2019-01-21T19:11:41.746Z,22.10
2019-01-21T19:14:11.973Z,21.03
2019-01-21T19:16:43.200Z,20.80
2019-01-21T19:19:13.378Z,21.90
2019-01-21T19:21:43.575Z,20.63
2019-01-21T19:24:13.818Z,21.63
2019-01-21T19:26:44.019Z,22.50
2019-01-21T19:29:14.254Z,21.03
2019-01-21T19:31:44.460Z,22.13
2019-01-21T19:34:14.688Z,22.47
2019-01-21T19:36:44.887Z,22.40
2019-01-21T19:39:15.202Z,21.63
2019-01-21T19:41:47.969Z,22.63
2019-01-21T19:44:18.249Z,23.30
2019-01-21T19:46:48.454Z,22.20
2019-01-21T19:49:19.003Z,22.23
2019-01-21T19:51:49.204Z,20.53
2019-01-21T19:54:19.429Z,20.77
2019-01-21T19:56:49.824Z,23.80
2019-01-21T19:59:20.036Z,21.77
2019-01-21T20:01:50.275Z,21.20
2019-01-21T20:04:20.478Z,21.60
2019-01-21T20:06:50.901Z,21.40
2019-01-21T20:09:21.247Z,22.13
2019-01-21T20:11:51.468Z,21.40
2019-01-21T20:14:21.750Z,21.77
2019-01-21T20:16:51.983Z,20.07
2019-01-21T20:19:23.819Z,20.63
2019-01-21T20:21:54.298Z,21.80
2019-01-21T20:24:24.537Z,22.83
2019-01-21T20:26:54.796Z,22.07
2019-01-21T20:29:25.810Z,22.77
2019-01-21T20:31:56.352Z,21.20
2019-01-21T20:34:26.593Z,22.00
2019-01-21T20:36:58.418Z,21.10
2019-01-21T20:39:28.619Z,22.27
2019-01-21T20:41:58.876Z,20.90
2019-01-21T20:44:29.064Z,21.93
2019-01-21T20:46:59.788Z,22.00
2019-01-21T20:49:30.163Z,22.83
2019-01-21T20:52:02.515Z,21.57
2019-01-21T20:54:34.282Z,23.87
2019-01-21T20:57:06.400Z,23.90
2019-01-21T20:59:37.489Z,22.47
2019-01-21T21:02:07.862Z,23.57
2019-01-21T21:04:38.354Z,23.27
2019-01-21T21:07:09.332Z,21.33
2019-01-21T21:09:39.933Z,22.30
2019-01-21T21:12:13.282Z,21.67
2019-01-21T21:14:43.816Z,23.60
2019-01-21T21:17:15.553Z,23.57
2019-01-21T21:19:45.795Z,24.47
2019-01-21T21:22:20.983Z,23.10
2019-01-21T21:24:48.414Z,23.40
2019-01-21T21:27:18.827Z,22.77
2019-01-21T21:29:51.107Z,23.37
2019-01-21T21:32:21.363Z,22.70
2019-01-21T21:34:53.332Z,21.20
2019-01-21T21:37:23.650Z,22.20
2019-01-21T21:39:54.570Z,21.23
2019-01-21T21:42:24.938Z,24.40
2019-01-21T21:44:57.955Z,23.63
2019-01-21T21:47:29.866Z,21.47
2019-01-21T21:50:00.083Z,22.70
2019-01-21T21:52:30.303Z,21.63
2019-01-21T21:55:00.545Z,22.83
2019-01-21T21:57:30.773Z,23.27
2019-01-21T22:00:03.683Z,22.40
2019-01-21T22:02:34.363Z,22.27
2019-01-21T22:05:09.436Z,22.43
2019-01-21T22:07:39.749Z,21.73
2019-01-21T22:10:20.081Z,20.87
2019-01-21T22:12:50.832Z,21.80
2019-01-21T22:15:24.091Z,23.23
2019-01-21T22:17:58.732Z,22.17
2019-01-21T22:20:27.201Z,23.40
2019-01-21T22:22:57.495Z,22.40
2019-01-21T22:25:31.599Z,21.90
2019-01-21T22:28:03.555Z,21.97
2019-01-21T22:30:35.305Z,19.70
2019-01-21T22:33:05.543Z,21.33
2019-01-21T22:35:38.941Z,22.50
2019-01-21T22:38:09.398Z,21.40
2019-01-21T22:40:39.643Z,21.20
2019-01-21T22:43:09.883Z,20.43
2019-01-21T22:45:40.081Z,19.20
2019-01-21T22:48:10.322Z,20.30
2019-01-21T22:50:40.546Z,22.17
2019-01-21T22:53:11.019Z,21.37
2019-01-21T22:55:41.319Z,22.90
2019-01-21T22:58:12.063Z,22.10
2019-01-21T23:00:49.783Z,21.60
2019-01-21T23:03:20.076Z,22.37
2019-01-21T23:05:50.690Z,21.20
2019-01-21T23:08:21.224Z,21.07
2019-01-21T23:10:51.513Z,20.90
2019-01-21T23:13:21.771Z,21.27
2019-01-21T23:15:51.997Z,21.17
2019-01-21T23:18:22.274Z,21.50
2019-01-21T23:20:53.118Z,20.87
2019-01-21T23:23:23.323Z,21.83
2019-01-21T23:25:53.549Z,22.93
2019-01-21T23:28:23.749Z,22.53
2019-01-21T23:30:53.977Z,23.10
2019-01-21T23:33:24.353Z,23.57
2019-01-21T23:35:54.582Z,22.57
2019-01-21T23:38:24.812Z,23.40
2019-01-21T23:40:55.262Z,23.53
2019-01-21T23:43:25.514Z,22.27
2019-01-21T23:45:55.866Z,21.37
2019-01-21T23:48:26.100Z,21.77
2019-01-21T23:50:56.326Z,22.20
2019-01-21T23:53:26.558Z,22.50
2019-01-21T23:55:56.999Z,21.20
2019-01-21T23:58:27.261Z,20.87
